Marine Corps Base Camp Pendleton, CA

9:46 AM PDT on July 29, 2016 (GMT -0700)
Camp Pendleton Marine Corps Air Station | | Change Station

Elev 75 ft 33.30 °N, 117.36 °W | Updated 51 minutes ago

Clear
Clear
76 °F
Feels Like 76 °F
N
0
Wind Variable Wind from North

Today
High -- | Low -- °F
--% Chance of Precip.
Yesterday
High -- | Low -- °F
Precip. -- in
Pressure 29.84 in
Visibility 7.0 miles
Clouds Clear
Dew Point 67 °F
Humidity 74%
Rainfall 0.00 in
Snow Depth Not available.
6:00 AM 7:50 PM
Waning Crescent, 20% visible
METAR KNFG 291555Z 00000KT 7SM CLR 24/19 A2984 RMK AO2 SLP104 T02440194 $
Pressure 29.84 in
Visibility 7.0 miles
Clouds Clear
Dew Point 67 °F
Humidity 74%
Rainfall 0.00 in
Snow Depth Not available.
6:00 AM 7:50 PM
Waning Crescent, 20% visible
METAR KNFG 291555Z 00000KT 7SM CLR 24/19 A2984 RMK AO2 SLP104 T02440194 $

10-Day Weather Forecast

Almanac

Astronomy

Jul. 29, 2016 Rise Set
Actual Time
Civil Twilight
Nautical Twilight
Astronomical Twilight
Moon
Length of Visible Light
Length of Day
Tomorrow will be .
, % of the Moon is Illuminated

Today's Extremes

State Highs State Lows

Community

WunderPhotos

Upload Photos

1,928,378 photos uploaded!

WunderBlog® & News

Nearby

Air Quality

  Air Quality AQ Index Pollutant
Not available.

Snow Depth

Station Depth Elevation

Earthquake Activity

City Distance Mag. Time & Date
Minimum magnitude displayed is 2.5.

Coastal Water Temperatures

Place Temperature

Stations

Nearby Weather Stations

Station Location Temp. Windchill Dew Point Humidity Wind Precip. Elev Updated Type
                   

Watches & Warnings

There are currently no watches in effect.